sensor_id;sensor_type;location;lat;lon;timestamp;P1;durP1;ratioP1;P2;durP2;ratioP2
48813;SDS011;34634;44.108;3.074;2023-06-22T00:00:48;26.00;;;6.53;;
48813;SDS011;34634;44.108;3.074;2023-06-22T00:03:14;27.35;;;6.65;;
48813;SDS011;34634;44.108;3.074;2023-06-22T00:05:41;20.40;;;6.45;;
48813;SDS011;34634;44.108;3.074;2023-06-22T00:08:07;29.70;;;6.97;;
48813;SDS011;34634;44.108;3.074;2023-06-22T00:10:33;24.00;;;7.40;;
48813;SDS011;34634;44.108;3.074;2023-06-22T00:13:00;29.35;;;6.60;;
48813;SDS011;34634;44.108;3.074;2023-06-22T00:15:26;25.10;;;7.05;;
48813;SDS011;34634;44.108;3.074;2023-06-22T00:17:53;29.48;;;7.40;;
48813;SDS011;34634;44.108;3.074;2023-06-22T00:20:20;25.10;;;7.22;;
48813;SDS011;34634;44.108;3.074;2023-06-22T00:22:46;22.65;;;7.10;;
48813;SDS011;34634;44.108;3.074;2023-06-22T00:25:13;26.15;;;7.18;;
48813;SDS011;34634;44.108;3.074;2023-06-22T00:27:39;31.67;;;7.20;;
48813;SDS011;34634;44.108;3.074;2023-06-22T00:30:06;27.75;;;7.63;;
48813;SDS011;34634;44.108;3.074;2023-06-22T00:32:32;22.23;;;7.15;;
48813;SDS011;34634;44.108;3.074;2023-06-22T00:34:58;24.25;;;7.65;;
48813;SDS011;34634;44.108;3.074;2023-06-22T00:37:25;26.50;;;8.25;;
48813;SDS011;34634;44.108;3.074;2023-06-22T00:39:55;26.67;;;8.23;;
48813;SDS011;34634;44.108;3.074;2023-06-22T00:42:22;29.67;;;7.60;;
48813;SDS011;34634;44.108;3.074;2023-06-22T00:44:48;29.73;;;7.75;;
48813;SDS011;34634;44.108;3.074;2023-06-22T00:47:15;31.08;;;8.38;;
48813;SDS011;34634;44.108;3.074;2023-06-22T00:49:42;22.48;;;7.75;;
48813;SDS011;34634;44.108;3.074;2023-06-22T00:52:08;26.13;;;8.20;;
48813;SDS011;34634;44.108;3.074;2023-06-22T00:54:42;25.48;;;8.40;;
48813;SDS011;34634;44.108;3.074;2023-06-22T00:57:12;32.40;;;8.23;;
48813;SDS011;34634;44.108;3.074;2023-06-22T00:59:47;26.65;;;8.52;;
48813;SDS011;34634;44.108;3.074;2023-06-22T01:02:14;29.92;;;8.43;;
48813;SDS011;34634;44.108;3.074;2023-06-22T01:04:40;35.20;;;8.68;;
48813;SDS011;34634;44.108;3.074;2023-06-22T01:07:10;27.17;;;8.13;;
48813;SDS011;34634;44.108;3.074;2023-06-22T01:09:44;27.42;;;8.98;;
48813;SDS011;34634;44.108;3.074;2023-06-22T01:12:11;28.60;;;8.73;;
48813;SDS011;34634;44.108;3.074;2023-06-22T01:14:39;28.33;;;9.23;;
48813;SDS011;34634;44.108;3.074;2023-06-22T01:17:08;25.73;;;8.07;;
48813;SDS011;34634;44.108;3.074;2023-06-22T01:19:37;26.77;;;8.18;;
48813;SDS011;34634;44.108;3.074;2023-06-22T01:22:06;23.27;;;8.63;;
48813;SDS011;34634;44.108;3.074;2023-06-22T01:29:56;30.85;;;9.18;;
48813;SDS011;34634;44.108;3.074;2023-06-22T01:32:28;28.77;;;8.70;;
48813;SDS011;34634;44.108;3.074;2023-06-22T01:34:56;27.92;;;8.40;;
48813;SDS011;34634;44.108;3.074;2023-06-22T01:37:23;32.38;;;8.50;;
48813;SDS011;34634;44.108;3.074;2023-06-22T01:39:50;24.48;;;7.80;;
48813;SDS011;34634;44.108;3.074;2023-06-22T01:42:16;28.75;;;9.13;;
48813;SDS011;34634;44.108;3.074;2023-06-22T01:44:43;28.55;;;8.63;;
48813;SDS011;34634;44.108;3.074;2023-06-22T01:47:09;29.98;;;8.65;;
48813;SDS011;34634;44.108;3.074;2023-06-22T01:49:36;32.13;;;8.30;;
48813;SDS011;34634;44.108;3.074;2023-06-22T01:52:02;25.55;;;8.10;;
48813;SDS011;34634;44.108;3.074;2023-06-22T01:54:29;29.15;;;8.55;;
48813;SDS011;34634;44.108;3.074;2023-06-22T01:56:55;29.42;;;8.80;;
48813;SDS011;34634;44.108;3.074;2023-06-22T01:59:25;23.70;;;8.27;;
48813;SDS011;34634;44.108;3.074;2023-06-22T02:02:04;22.20;;;8.25;;
48813;SDS011;34634;44.108;3.074;2023-06-22T02:04:41;24.17;;;7.97;;
48813;SDS011;34634;44.108;3.074;2023-06-22T02:07:12;24.60;;;8.07;;
48813;SDS011;34634;44.108;3.074;2023-06-22T02:09:39;24.38;;;8.23;;
48813;SDS011;34634;44.108;3.074;2023-06-22T02:12:08;20.83;;;7.72;;
48813;SDS011;34634;44.108;3.074;2023-06-22T02:14:37;19.30;;;7.85;;
48813;SDS011;34634;44.108;3.074;2023-06-22T02:17:03;18.45;;;7.22;;
48813;SDS011;34634;44.108;3.074;2023-06-22T02:19:35;19.55;;;7.40;;
48813;SDS011;34634;44.108;3.074;2023-06-22T02:22:02;20.30;;;6.88;;
48813;SDS011;34634;44.108;3.074;2023-06-22T02:24:29;18.40;;;6.85;;
48813;SDS011;34634;44.108;3.074;2023-06-22T02:26:57;25.30;;;7.65;;
48813;SDS011;34634;44.108;3.074;2023-06-22T02:29:24;22.85;;;7.60;;
48813;SDS011;34634;44.108;3.074;2023-06-22T02:31:50;20.20;;;7.30;;
48813;SDS011;34634;44.108;3.074;2023-06-22T02:34:17;18.67;;;7.07;;
48813;SDS011;34634;44.108;3.074;2023-06-22T02:36:44;23.88;;;7.03;;
48813;SDS011;34634;44.108;3.074;2023-06-22T02:41:45;14.88;;;6.60;;
48813;SDS011;34634;44.108;3.074;2023-06-22T02:44:11;17.33;;;8.07;;
48813;SDS011;34634;44.108;3.074;2023-06-22T02:46:38;21.17;;;7.57;;
48813;SDS011;34634;44.108;3.074;2023-06-22T02:49:04;24.08;;;6.95;;
48813;SDS011;34634;44.108;3.074;2023-06-22T02:51:32;25.52;;;7.85;;
48813;SDS011;34634;44.108;3.074;2023-06-22T02:54:05;21.95;;;6.97;;
48813;SDS011;34634;44.108;3.074;2023-06-22T02:56:31;28.92;;;7.88;;
48813;SDS011;34634;44.108;3.074;2023-06-22T02:58:57;19.63;;;7.55;;
48813;SDS011;34634;44.108;3.074;2023-06-22T03:01:27;18.17;;;7.80;;
48813;SDS011;34634;44.108;3.074;2023-06-22T03:03:55;21.10;;;7.93;;
48813;SDS011;34634;44.108;3.074;2023-06-22T03:06:22;20.67;;;7.97;;
48813;SDS011;34634;44.108;3.074;2023-06-22T03:08:58;22.75;;;7.72;;
48813;SDS011;34634;44.108;3.074;2023-06-22T03:11:25;24.55;;;8.52;;
48813;SDS011;34634;44.108;3.074;2023-06-22T03:13:51;28.98;;;8.70;;
48813;SDS011;34634;44.108;3.074;2023-06-22T03:16:18;25.38;;;8.18;;
48813;SDS011;34634;44.108;3.074;2023-06-22T03:18:44;22.35;;;7.40;;
48813;SDS011;34634;44.108;3.074;2023-06-22T03:21:11;20.73;;;7.35;;
48813;SDS011;34634;44.108;3.074;2023-06-22T03:23:37;22.48;;;7.60;;
48813;SDS011;34634;44.108;3.074;2023-06-22T03:26:03;21.67;;;7.88;;
48813;SDS011;34634;44.108;3.074;2023-06-22T03:28:30;24.42;;;7.75;;
48813;SDS011;34634;44.108;3.074;2023-06-22T03:30:57;22.00;;;8.25;;
48813;SDS011;34634;44.108;3.074;2023-06-22T03:33:24;31.08;;;8.98;;
48813;SDS011;34634;44.108;3.074;2023-06-22T03:35:50;25.27;;;8.45;;
48813;SDS011;34634;44.108;3.074;2023-06-22T03:38:17;31.33;;;8.35;;
48813;SDS011;34634;44.108;3.074;2023-06-22T03:40:43;26.73;;;8.00;;
48813;SDS011;34634;44.108;3.074;2023-06-22T03:43:09;30.70;;;8.90;;
48813;SDS011;34634;44.108;3.074;2023-06-22T03:45:35;25.58;;;8.43;;
48813;SDS011;34634;44.108;3.074;2023-06-22T03:48:02;26.33;;;8.02;;
48813;SDS011;34634;44.108;3.074;2023-06-22T03:50:28;31.85;;;9.27;;
48813;SDS011;34634;44.108;3.074;2023-06-22T03:52:55;27.58;;;8.73;;
48813;SDS011;34634;44.108;3.074;2023-06-22T03:55:21;30.83;;;9.88;;
48813;SDS011;34634;44.108;3.074;2023-06-22T03:57:48;20.67;;;8.60;;
48813;SDS011;34634;44.108;3.074;2023-06-22T04:00:14;26.67;;;8.80;;
48813;SDS011;34634;44.108;3.074;2023-06-22T04:02:43;27.90;;;8.50;;
48813;SDS011;34634;44.108;3.074;2023-06-22T04:05:10;23.45;;;8.75;;
48813;SDS011;34634;44.108;3.074;2023-06-22T04:07:36;20.58;;;8.65;;
48813;SDS011;34634;44.108;3.074;2023-06-22T04:10:05;29.17;;;8.75;;
48813;SDS011;34634;44.108;3.074;2023-06-22T04:12:32;33.78;;;9.40;;
48813;SDS011;34634;44.108;3.074;2023-06-22T04:14:58;22.38;;;8.57;;
48813;SDS011;34634;44.108;3.074;2023-06-22T04:17:25;28.23;;;9.07;;
48813;SDS011;34634;44.108;3.074;2023-06-22T04:19:51;29.75;;;9.25;;
48813;SDS011;34634;44.108;3.074;2023-06-22T04:22:18;25.08;;;9.15;;
48813;SDS011;34634;44.108;3.074;2023-06-22T04:24:44;22.95;;;8.73;;
48813;SDS011;34634;44.108;3.074;2023-06-22T04:27:10;26.35;;;9.20;;
48813;SDS011;34634;44.108;3.074;2023-06-22T04:29:37;25.60;;;9.23;;
48813;SDS011;34634;44.108;3.074;2023-06-22T04:32:09;30.17;;;8.98;;
48813;SDS011;34634;44.108;3.074;2023-06-22T04:34:38;25.50;;;8.90;;
48813;SDS011;34634;44.108;3.074;2023-06-22T04:37:04;28.33;;;8.70;;
48813;SDS011;34634;44.108;3.074;2023-06-22T04:39:30;30.00;;;9.15;;
48813;SDS011;34634;44.108;3.074;2023-06-22T04:41:56;25.00;;;8.75;;
48813;SDS011;34634;44.108;3.074;2023-06-22T04:44:26;30.85;;;8.88;;
48813;SDS011;34634;44.108;3.074;2023-06-22T04:46:53;22.70;;;9.35;;
48813;SDS011;34634;44.108;3.074;2023-06-22T04:49:20;28.42;;;8.63;;
48813;SDS011;34634;44.108;3.074;2023-06-22T04:51:47;27.45;;;9.13;;
48813;SDS011;34634;44.108;3.074;2023-06-22T04:54:14;23.00;;;8.43;;
48813;SDS011;34634;44.108;3.074;2023-06-22T04:56:40;21.25;;;8.02;;
48813;SDS011;34634;44.108;3.074;2023-06-22T04:59:07;26.45;;;9.20;;
48813;SDS011;34634;44.108;3.074;2023-06-22T05:01:33;24.90;;;9.02;;
48813;SDS011;34634;44.108;3.074;2023-06-22T05:04:00;28.35;;;8.75;;
48813;SDS011;34634;44.108;3.074;2023-06-22T05:06:28;27.48;;;8.57;;
48813;SDS011;34634;44.108;3.074;2023-06-22T05:08:54;22.40;;;9.02;;
48813;SDS011;34634;44.108;3.074;2023-06-22T05:11:25;24.05;;;8.38;;
48813;SDS011;34634;44.108;3.074;2023-06-22T05:13:51;35.78;;;10.07;;
48813;SDS011;34634;44.108;3.074;2023-06-22T05:16:17;24.00;;;9.63;;
48813;SDS011;34634;44.108;3.074;2023-06-22T05:18:50;27.85;;;8.52;;
48813;SDS011;34634;44.108;3.074;2023-06-22T05:21:16;20.90;;;8.85;;
48813;SDS011;34634;44.108;3.074;2023-06-22T05:23:43;26.80;;;9.10;;
48813;SDS011;34634;44.108;3.074;2023-06-22T05:26:09;27.40;;;9.52;;
48813;SDS011;34634;44.108;3.074;2023-06-22T05:28:35;29.30;;;9.23;;
48813;SDS011;34634;44.108;3.074;2023-06-22T05:31:01;25.58;;;9.82;;
48813;SDS011;34634;44.108;3.074;2023-06-22T05:33:29;21.25;;;9.68;;
48813;SDS011;34634;44.108;3.074;2023-06-22T05:35:55;22.50;;;9.45;;
48813;SDS011;34634;44.108;3.074;2023-06-22T05:38:21;27.70;;;9.88;;
48813;SDS011;34634;44.108;3.074;2023-06-22T05:40:48;23.23;;;9.55;;
48813;SDS011;34634;44.108;3.074;2023-06-22T05:43:14;23.85;;;8.90;;
48813;SDS011;34634;44.108;3.074;2023-06-22T05:45:41;31.48;;;10.88;;
48813;SDS011;34634;44.108;3.074;2023-06-22T05:48:07;24.98;;;9.68;;
48813;SDS011;34634;44.108;3.074;2023-06-22T05:50:33;27.20;;;9.70;;
48813;SDS011;34634;44.108;3.074;2023-06-22T05:53:00;22.88;;;8.90;;
48813;SDS011;34634;44.108;3.074;2023-06-22T05:55:26;24.60;;;8.70;;
48813;SDS011;34634;44.108;3.074;2023-06-22T05:57:52;32.83;;;9.57;;
48813;SDS011;34634;44.108;3.074;2023-06-22T06:00:19;27.75;;;9.38;;
48813;SDS011;34634;44.108;3.074;2023-06-22T06:02:45;27.77;;;9.10;;
48813;SDS011;34634;44.108;3.074;2023-06-22T06:05:11;29.83;;;9.05;;
48813;SDS011;34634;44.108;3.074;2023-06-22T06:07:44;28.13;;;9.15;;
48813;SDS011;34634;44.108;3.074;2023-06-22T06:10:11;22.90;;;8.77;;
48813;SDS011;34634;44.108;3.074;2023-06-22T06:12:38;18.13;;;8.43;;
48813;SDS011;34634;44.108;3.074;2023-06-22T06:15:04;27.73;;;9.15;;
48813;SDS011;34634;44.108;3.074;2023-06-22T06:17:30;28.55;;;9.02;;
48813;SDS011;34634;44.108;3.074;2023-06-22T06:19:59;27.40;;;9.60;;
48813;SDS011;34634;44.108;3.074;2023-06-22T06:22:26;35.28;;;12.07;;
48813;SDS011;34634;44.108;3.074;2023-06-22T06:24:52;32.42;;;12.00;;
48813;SDS011;34634;44.108;3.074;2023-06-22T06:27:18;27.45;;;12.07;;
48813;SDS011;34634;44.108;3.074;2023-06-22T06:29:45;32.92;;;12.30;;
48813;SDS011;34634;44.108;3.074;2023-06-22T06:32:13;34.67;;;13.48;;
48813;SDS011;34634;44.108;3.074;2023-06-22T06:34:39;38.67;;;13.43;;
48813;SDS011;34634;44.108;3.074;2023-06-22T06:37:06;32.53;;;12.68;;
48813;SDS011;34634;44.108;3.074;2023-06-22T06:39:32;27.52;;;12.02;;
48813;SDS011;34634;44.108;3.074;2023-06-22T06:41:58;29.08;;;11.73;;
48813;SDS011;34634;44.108;3.074;2023-06-22T06:44:24;29.67;;;12.57;;
48813;SDS011;34634;44.108;3.074;2023-06-22T06:46:51;32.10;;;11.45;;
48813;SDS011;34634;44.108;3.074;2023-06-22T06:49:19;25.23;;;10.77;;
48813;SDS011;34634;44.108;3.074;2023-06-22T06:51:45;29.17;;;10.52;;
48813;SDS011;34634;44.108;3.074;2023-06-22T06:54:12;25.00;;;10.73;;
48813;SDS011;34634;44.108;3.074;2023-06-22T06:56:38;21.15;;;9.48;;
48813;SDS011;34634;44.108;3.074;2023-06-22T06:59:04;20.23;;;10.57;;
48813;SDS011;34634;44.108;3.074;2023-06-22T07:01:31;29.08;;;12.05;;
48813;SDS011;34634;44.108;3.074;2023-06-22T07:03:59;27.60;;;12.07;;
48813;SDS011;34634;44.108;3.074;2023-06-22T07:06:26;26.30;;;11.43;;
48813;SDS011;34634;44.108;3.074;2023-06-22T07:08:55;20.52;;;10.48;;
48813;SDS011;34634;44.108;3.074;2023-06-22T07:11:21;24.38;;;10.40;;
48813;SDS011;34634;44.108;3.074;2023-06-22T07:13:48;26.70;;;10.13;;
48813;SDS011;34634;44.108;3.074;2023-06-22T07:16:14;22.52;;;9.63;;
48813;SDS011;34634;44.108;3.074;2023-06-22T07:18:40;22.45;;;10.13;;
48813;SDS011;34634;44.108;3.074;2023-06-22T07:21:07;25.80;;;9.82;;
48813;SDS011;34634;44.108;3.074;2023-06-22T07:23:33;18.85;;;10.25;;
48813;SDS011;34634;44.108;3.074;2023-06-22T07:25:59;25.25;;;10.93;;
48813;SDS011;34634;44.108;3.074;2023-06-22T07:28:31;24.50;;;9.90;;
48813;SDS011;34634;44.108;3.074;2023-06-22T07:31:02;25.35;;;10.80;;
48813;SDS011;34634;44.108;3.074;2023-06-22T07:33:29;28.27;;;9.32;;
48813;SDS011;34634;44.108;3.074;2023-06-22T07:35:56;25.83;;;8.93;;
48813;SDS011;34634;44.108;3.074;2023-06-22T07:38:22;17.58;;;8.45;;
48813;SDS011;34634;44.108;3.074;2023-06-22T07:40:49;14.93;;;7.35;;
48813;SDS011;34634;44.108;3.074;2023-06-22T07:43:16;16.48;;;7.50;;
48813;SDS011;34634;44.108;3.074;2023-06-22T07:45:47;15.65;;;6.78;;
48813;SDS011;34634;44.108;3.074;2023-06-22T07:48:19;17.27;;;6.63;;
48813;SDS011;34634;44.108;3.074;2023-06-22T07:50:46;17.73;;;5.45;;
48813;SDS011;34634;44.108;3.074;2023-06-22T07:53:12;12.57;;;4.82;;
48813;SDS011;34634;44.108;3.074;2023-06-22T07:55:39;11.55;;;4.43;;
48813;SDS011;34634;44.108;3.074;2023-06-22T07:58:05;9.60;;;4.43;;
48813;SDS011;34634;44.108;3.074;2023-06-22T08:00:33;7.85;;;4.40;;
48813;SDS011;34634;44.108;3.074;2023-06-22T08:02:59;12.45;;;4.32;;
48813;SDS011;34634;44.108;3.074;2023-06-22T08:05:28;8.13;;;3.67;;
48813;SDS011;34634;44.108;3.074;2023-06-22T08:07:55;9.27;;;3.55;;
48813;SDS011;34634;44.108;3.074;2023-06-22T08:10:21;6.55;;;3.35;;
48813;SDS011;34634;44.108;3.074;2023-06-22T08:12:48;7.13;;;3.15;;
48813;SDS011;34634;44.108;3.074;2023-06-22T08:15:14;9.27;;;3.30;;
48813;SDS011;34634;44.108;3.074;2023-06-22T08:17:41;7.35;;;3.13;;
48813;SDS011;34634;44.108;3.074;2023-06-22T08:20:07;9.77;;;3.25;;
48813;SDS011;34634;44.108;3.074;2023-06-22T08:22:38;11.10;;;3.15;;
48813;SDS011;34634;44.108;3.074;2023-06-22T08:25:04;6.65;;;3.58;;
48813;SDS011;34634;44.108;3.074;2023-06-22T08:27:31;8.60;;;3.28;;
48813;SDS011;34634;44.108;3.074;2023-06-22T08:29:58;5.68;;;2.80;;
48813;SDS011;34634;44.108;3.074;2023-06-22T08:32:24;9.30;;;3.05;;
48813;SDS011;34634;44.108;3.074;2023-06-22T08:34:52;7.05;;;2.80;;
48813;SDS011;34634;44.108;3.074;2023-06-22T08:37:19;5.50;;;3.28;;
48813;SDS011;34634;44.108;3.074;2023-06-22T08:39:45;5.72;;;2.75;;
48813;SDS011;34634;44.108;3.074;2023-06-22T08:42:12;5.13;;;2.53;;
48813;SDS011;34634;44.108;3.074;2023-06-22T08:44:38;7.32;;;2.80;;
48813;SDS011;34634;44.108;3.074;2023-06-22T08:47:04;7.35;;;2.67;;
48813;SDS011;34634;44.108;3.074;2023-06-22T08:49:31;4.15;;;2.95;;
48813;SDS011;34634;44.108;3.074;2023-06-22T08:51:57;5.80;;;2.97;;
48813;SDS011;34634;44.108;3.074;2023-06-22T08:54:24;10.45;;;2.88;;
48813;SDS011;34634;44.108;3.074;2023-06-22T08:56:50;4.43;;;3.10;;
48813;SDS011;34634;44.108;3.074;2023-06-22T08:59:16;4.72;;;3.20;;
48813;SDS011;34634;44.108;3.074;2023-06-22T09:01:42;6.07;;;3.22;;
48813;SDS011;34634;44.108;3.074;2023-06-22T09:04:11;4.53;;;3.20;;
48813;SDS011;34634;44.108;3.074;2023-06-22T09:06:37;6.75;;;3.35;;
48813;SDS011;34634;44.108;3.074;2023-06-22T09:09:10;8.85;;;3.20;;
48813;SDS011;34634;44.108;3.074;2023-06-22T09:11:36;8.82;;;3.25;;
48813;SDS011;34634;44.108;3.074;2023-06-22T09:14:03;4.10;;;2.72;;
48813;SDS011;34634;44.108;3.074;2023-06-22T09:16:29;3.50;;;2.85;;
48813;SDS011;34634;44.108;3.074;2023-06-22T09:18:56;6.65;;;2.60;;
48813;SDS011;34634;44.108;3.074;2023-06-22T09:21:23;5.97;;;3.30;;
48813;SDS011;34634;44.108;3.074;2023-06-22T09:23:49;6.90;;;3.80;;
48813;SDS011;34634;44.108;3.074;2023-06-22T09:26:17;6.10;;;3.28;;
48813;SDS011;34634;44.108;3.074;2023-06-22T09:28:43;6.80;;;3.15;;
48813;SDS011;34634;44.108;3.074;2023-06-22T09:31:09;5.60;;;3.33;;
48813;SDS011;34634;44.108;3.074;2023-06-22T09:33:36;4.22;;;2.97;;
48813;SDS011;34634;44.108;3.074;2023-06-22T09:36:06;9.00;;;2.83;;
48813;SDS011;34634;44.108;3.074;2023-06-22T09:38:38;3.70;;;3.05;;
48813;SDS011;34634;44.108;3.074;2023-06-22T09:41:04;4.82;;;3.20;;
48813;SDS011;34634;44.108;3.074;2023-06-22T09:43:31;3.95;;;2.90;;
48813;SDS011;34634;44.108;3.074;2023-06-22T09:46:00;5.57;;;3.05;;
48813;SDS011;34634;44.108;3.074;2023-06-22T09:48:27;4.28;;;2.95;;
48813;SDS011;34634;44.108;3.074;2023-06-22T09:50:55;7.95;;;3.08;;
48813;SDS011;34634;44.108;3.074;2023-06-22T09:53:21;6.97;;;3.35;;
48813;SDS011;34634;44.108;3.074;2023-06-22T09:55:48;6.57;;;3.00;;
48813;SDS011;34634;44.108;3.074;2023-06-22T09:58:14;5.57;;;2.90;;
48813;SDS011;34634;44.108;3.074;2023-06-22T10:00:40;3.35;;;2.55;;
48813;SDS011;34634;44.108;3.074;2023-06-22T10:03:07;4.82;;;3.17;;
48813;SDS011;34634;44.108;3.074;2023-06-22T10:05:34;3.63;;;2.80;;
48813;SDS011;34634;44.108;3.074;2023-06-22T10:08:00;5.10;;;2.83;;
48813;SDS011;34634;44.108;3.074;2023-06-22T10:10:26;8.30;;;3.13;;
48813;SDS011;34634;44.108;3.074;2023-06-22T10:12:56;5.00;;;2.78;;
48813;SDS011;34634;44.108;3.074;2023-06-22T10:15:23;7.07;;;3.33;;
48813;SDS011;34634;44.108;3.074;2023-06-22T10:17:49;5.53;;;3.00;;
48813;SDS011;34634;44.108;3.074;2023-06-22T10:20:16;5.90;;;2.95;;
48813;SDS011;34634;44.108;3.074;2023-06-22T10:22:44;4.18;;;3.03;;
48813;SDS011;34634;44.108;3.074;2023-06-22T10:25:11;4.22;;;2.90;;
48813;SDS011;34634;44.108;3.074;2023-06-22T10:27:38;5.90;;;3.20;;
48813;SDS011;34634;44.108;3.074;2023-06-22T10:30:08;4.57;;;3.20;;
48813;SDS011;34634;44.108;3.074;2023-06-22T10:32:34;4.03;;;3.33;;
48813;SDS011;34634;44.108;3.074;2023-06-22T10:35:02;5.35;;;3.25;;
48813;SDS011;34634;44.108;3.074;2023-06-22T10:37:28;5.55;;;2.83;;
48813;SDS011;34634;44.108;3.074;2023-06-22T10:39:54;4.10;;;2.95;;
48813;SDS011;34634;44.108;3.074;2023-06-22T10:42:21;5.30;;;3.00;;
48813;SDS011;34634;44.108;3.074;2023-06-22T10:44:47;3.90;;;2.78;;
48813;SDS011;34634;44.108;3.074;2023-06-22T10:47:13;5.88;;;2.85;;
48813;SDS011;34634;44.108;3.074;2023-06-22T10:49:40;4.35;;;2.65;;
48813;SDS011;34634;44.108;3.074;2023-06-22T10:52:07;3.10;;;2.50;;
48813;SDS011;34634;44.108;3.074;2023-06-22T10:54:34;5.55;;;2.80;;
48813;SDS011;34634;44.108;3.074;2023-06-22T10:57:00;4.18;;;3.20;;
48813;SDS011;34634;44.108;3.074;2023-06-22T10:59:27;5.60;;;2.80;;
48813;SDS011;34634;44.108;3.074;2023-06-22T11:01:55;5.30;;;3.25;;
48813;SDS011;34634;44.108;3.074;2023-06-22T11:04:21;3.72;;;2.83;;
48813;SDS011;34634;44.108;3.074;2023-06-22T11:06:48;3.40;;;2.78;;
48813;SDS011;34634;44.108;3.074;2023-06-22T11:09:15;6.45;;;3.30;;
48813;SDS011;34634;44.108;3.074;2023-06-22T11:11:47;4.93;;;3.00;;
48813;SDS011;34634;44.108;3.074;2023-06-22T11:14:13;5.18;;;3.08;;
48813;SDS011;34634;44.108;3.074;2023-06-22T11:16:40;4.15;;;2.97;;
48813;SDS011;34634;44.108;3.074;2023-06-22T11:19:06;2.80;;;2.60;;
48813;SDS011;34634;44.108;3.074;2023-06-22T11:21:32;4.53;;;3.22;;
48813;SDS011;34634;44.108;3.074;2023-06-22T11:23:59;3.85;;;3.30;;
48813;SDS011;34634;44.108;3.074;2023-06-22T11:26:26;3.50;;;3.20;;
48813;SDS011;34634;44.108;3.074;2023-06-22T11:28:53;3.65;;;2.95;;
48813;SDS011;34634;44.108;3.074;2023-06-22T11:31:19;3.20;;;2.55;;
48813;SDS011;34634;44.108;3.074;2023-06-22T11:33:45;4.88;;;3.22;;
48813;SDS011;34634;44.108;3.074;2023-06-22T11:36:13;4.82;;;3.22;;
48813;SDS011;34634;44.108;3.074;2023-06-22T11:38:39;8.15;;;3.38;;
48813;SDS011;34634;44.108;3.074;2023-06-22T11:41:06;4.60;;;3.25;;
48813;SDS011;34634;44.108;3.074;2023-06-22T11:43:32;5.22;;;3.42;;
48813;SDS011;34634;44.108;3.074;2023-06-22T11:46:00;8.10;;;3.40;;
48813;SDS011;34634;44.108;3.074;2023-06-22T11:48:27;11.40;;;3.53;;
48813;SDS011;34634;44.108;3.074;2023-06-22T11:50:53;6.03;;;3.35;;
48813;SDS011;34634;44.108;3.074;2023-06-22T11:53:24;3.92;;;3.00;;
48813;SDS011;34634;44.108;3.074;2023-06-22T11:55:50;5.57;;;2.95;;
48813;SDS011;34634;44.108;3.074;2023-06-22T11:58:18;3.72;;;2.85;;
48813;SDS011;34634;44.108;3.074;2023-06-22T12:00:44;7.80;;;3.20;;
48813;SDS011;34634;44.108;3.074;2023-06-22T12:03:10;3.38;;;2.78;;
48813;SDS011;34634;44.108;3.074;2023-06-22T12:05:37;3.00;;;2.45;;
48813;SDS011;34634;44.108;3.074;2023-06-22T12:08:04;3.83;;;2.20;;
48813;SDS011;34634;44.108;3.074;2023-06-22T12:10:30;3.15;;;1.95;;
48813;SDS011;34634;44.108;3.074;2023-06-22T12:12:56;2.08;;;1.85;;
48813;SDS011;34634;44.108;3.074;2023-06-22T12:15:25;2.42;;;1.70;;
48813;SDS011;34634;44.108;3.074;2023-06-22T12:17:51;2.03;;;1.77;;
48813;SDS011;34634;44.108;3.074;2023-06-22T12:20:18;2.10;;;1.90;;
48813;SDS011;34634;44.108;3.074;2023-06-22T12:22:44;2.10;;;1.45;;
48813;SDS011;34634;44.108;3.074;2023-06-22T12:25:11;2.45;;;1.80;;
48813;SDS011;34634;44.108;3.074;2023-06-22T12:27:37;1.70;;;1.58;;
48813;SDS011;34634;44.108;3.074;2023-06-22T12:30:04;1.77;;;1.67;;
48813;SDS011;34634;44.108;3.074;2023-06-22T12:32:30;2.17;;;1.40;;
48813;SDS011;34634;44.108;3.074;2023-06-22T12:34:57;1.60;;;1.40;;
48813;SDS011;34634;44.108;3.074;2023-06-22T12:37:23;1.65;;;1.40;;
48813;SDS011;34634;44.108;3.074;2023-06-22T12:39:49;1.77;;;1.63;;
48813;SDS011;34634;44.108;3.074;2023-06-22T12:42:16;1.70;;;1.48;;
48813;SDS011;34634;44.108;3.074;2023-06-22T12:44:42;2.22;;;1.42;;
48813;SDS011;34634;44.108;3.074;2023-06-22T12:47:09;2.70;;;1.60;;
48813;SDS011;34634;44.108;3.074;2023-06-22T12:49:36;8.45;;;3.15;;
48813;SDS011;34634;44.108;3.074;2023-06-22T12:52:03;10.32;;;3.50;;
48813;SDS011;34634;44.108;3.074;2023-06-22T12:54:29;5.28;;;3.25;;
48813;SDS011;34634;44.108;3.074;2023-06-22T12:56:56;5.15;;;3.00;;
48813;SDS011;34634;44.108;3.074;2023-06-22T12:59:22;4.75;;;2.70;;
48813;SDS011;34634;44.108;3.074;2023-06-22T13:01:48;3.97;;;2.30;;
48813;SDS011;34634;44.108;3.074;2023-06-22T13:04:15;5.10;;;2.20;;
48813;SDS011;34634;44.108;3.074;2023-06-22T13:06:41;2.28;;;1.90;;
48813;SDS011;34634;44.108;3.074;2023-06-22T13:09:09;2.00;;;1.55;;
48813;SDS011;34634;44.108;3.074;2023-06-22T13:11:35;2.35;;;1.60;;
48813;SDS011;34634;44.108;3.074;2023-06-22T13:14:02;2.85;;;1.77;;
48813;SDS011;34634;44.108;3.074;2023-06-22T13:16:28;2.80;;;1.90;;
48813;SDS011;34634;44.108;3.074;2023-06-22T13:18:54;2.10;;;1.90;;
48813;SDS011;34634;44.108;3.074;2023-06-22T13:21:21;2.20;;;1.70;;
48813;SDS011;34634;44.108;3.074;2023-06-22T13:23:47;2.22;;;1.95;;
48813;SDS011;34634;44.108;3.074;2023-06-22T13:26:14;3.28;;;2.00;;
48813;SDS011;34634;44.108;3.074;2023-06-22T13:28:40;2.28;;;1.92;;
48813;SDS011;34634;44.108;3.074;2023-06-22T13:31:09;3.78;;;1.77;;
48813;SDS011;34634;44.108;3.074;2023-06-22T13:33:35;2.53;;;2.03;;
48813;SDS011;34634;44.108;3.074;2023-06-22T13:36:03;2.47;;;2.03;;
48813;SDS011;34634;44.108;3.074;2023-06-22T13:38:31;3.92;;;1.95;;
48813;SDS011;34634;44.108;3.074;2023-06-22T13:40:57;2.35;;;1.88;;
48813;SDS011;34634;44.108;3.074;2023-06-22T13:43:26;3.83;;;2.15;;
48813;SDS011;34634;44.108;3.074;2023-06-22T13:45:53;4.45;;;2.30;;
48813;SDS011;34634;44.108;3.074;2023-06-22T13:48:19;4.20;;;2.22;;
48813;SDS011;34634;44.108;3.074;2023-06-22T13:50:45;5.85;;;2.05;;
48813;SDS011;34634;44.108;3.074;2023-06-22T13:53:11;4.80;;;2.17;;
48813;SDS011;34634;44.108;3.074;2023-06-22T13:55:38;5.72;;;2.50;;
48813;SDS011;34634;44.108;3.074;2023-06-22T13:58:04;4.30;;;2.20;;
48813;SDS011;34634;44.108;3.074;2023-06-22T14:00:31;3.72;;;2.20;;
48813;SDS011;34634;44.108;3.074;2023-06-22T14:02:57;2.92;;;1.92;;
48813;SDS011;34634;44.108;3.074;2023-06-22T14:05:23;3.63;;;2.05;;
48813;SDS011;34634;44.108;3.074;2023-06-22T14:07:50;2.85;;;2.50;;
48813;SDS011;34634;44.108;3.074;2023-06-22T14:10:16;4.97;;;2.20;;
48813;SDS011;34634;44.108;3.074;2023-06-22T14:12:42;5.40;;;2.25;;
48813;SDS011;34634;44.108;3.074;2023-06-22T14:15:10;2.83;;;1.90;;
48813;SDS011;34634;44.108;3.074;2023-06-22T14:17:36;4.07;;;2.13;;
48813;SDS011;34634;44.108;3.074;2023-06-22T14:20:02;2.65;;;1.90;;
48813;SDS011;34634;44.108;3.074;2023-06-22T14:22:30;2.95;;;2.20;;
48813;SDS011;34634;44.108;3.074;2023-06-22T14:24:57;3.15;;;1.98;;
48813;SDS011;34634;44.108;3.074;2023-06-22T14:27:23;2.33;;;2.13;;
48813;SDS011;34634;44.108;3.074;2023-06-22T14:29:50;3.95;;;1.80;;
48813;SDS011;34634;44.108;3.074;2023-06-22T14:32:16;2.15;;;1.95;;
48813;SDS011;34634;44.108;3.074;2023-06-22T14:34:42;1.83;;;1.70;;
48813;SDS011;34634;44.108;3.074;2023-06-22T14:37:09;3.05;;;1.63;;
48813;SDS011;34634;44.108;3.074;2023-06-22T14:39:37;1.80;;;1.60;;
48813;SDS011;34634;44.108;3.074;2023-06-22T14:42:05;2.38;;;1.85;;
48813;SDS011;34634;44.108;3.074;2023-06-22T14:44:31;1.95;;;1.60;;
48813;SDS011;34634;44.108;3.074;2023-06-22T14:46:58;1.83;;;1.60;;